createdAt,value
2017-04-28T06:28:53.725Z,5.66
2017-04-28T06:29:35.817Z,5.75
2017-04-28T06:30:17.390Z,5.71
2017-04-28T06:30:58.936Z,5.69
2017-04-28T06:31:41.049Z,5.79
2017-04-28T06:32:22.844Z,5.79
2017-04-28T06:33:04.741Z,5.76
2017-04-28T06:33:46.637Z,5.84
2017-04-28T06:34:28.468Z,5.86
2017-04-28T06:35:10.053Z,5.9
2017-04-28T06:35:51.388Z,5.87
2017-04-28T06:36:33.310Z,5.83
2017-04-28T06:37:14.774Z,5.93
2017-04-28T06:37:56.006Z,5.91
2017-04-28T06:38:37.852Z,5.9
2017-04-28T06:39:19.923Z,5.98
2017-04-28T06:40:01.373Z,5.99
2017-04-28T06:40:43.172Z,5.99
2017-04-28T06:41:25.381Z,6.04
2017-04-28T06:42:06.911Z,5.97
2017-04-28T06:42:48.221Z,6.11
2017-04-28T06:43:30.099Z,6.02
2017-04-28T06:44:12.662Z,6.11
2017-04-28T06:44:54.509Z,6.14
2017-04-28T06:45:36.641Z,6.05
2017-04-28T06:46:18.398Z,6.07
2017-04-28T06:46:59.915Z,6.07
2017-04-28T06:47:41.823Z,6.08
2017-04-28T06:48:23.449Z,6.12
2017-04-28T06:49:05.514Z,6.11
2017-04-28T06:49:47.103Z,6.08
2017-04-28T06:50:28.930Z,6.08
2017-04-28T06:51:10.887Z,6.12
2017-04-28T06:51:52.959Z,6.12
2017-04-28T06:52:34.570Z,6.17
2017-04-28T06:53:16.471Z,6.16
2017-04-28T06:53:58.195Z,6.27
2017-04-28T06:54:41.093Z,6.26
2017-04-28T06:55:22.991Z,6.3
2017-04-28T06:56:04.764Z,6.26
2017-04-28T06:56:45.723Z,6.35
2017-04-28T06:57:27.500Z,6.33
2017-04-28T06:58:08.321Z,6.45
2017-04-28T06:58:49.519Z,6.45
2017-04-28T06:59:36.015Z,6.41
2017-04-28T07:00:17.911Z,6.46
2017-04-28T07:00:58.861Z,6.42
2017-04-28T07:01:40.023Z,6.51
2017-04-28T07:02:22.007Z,6.54
2017-04-28T07:03:02.869Z,6.51
2017-04-28T07:03:44.342Z,6.59
2017-04-28T07:04:26.001Z,6.6
2017-04-28T07:05:07.235Z,6.66
2017-04-28T07:05:49.362Z,6.69
2017-04-28T07:06:30.899Z,6.6
2017-04-28T07:07:11.960Z,6.78
2017-04-28T07:07:53.700Z,6.77
2017-04-28T07:08:35.924Z,6.88
2017-04-28T07:09:17.648Z,6.81
2017-04-28T07:09:59.126Z,6.88
2017-04-28T07:10:41.009Z,6.82
2017-04-28T07:11:23.197Z,6.99
2017-04-28T07:12:04.772Z,6.92
2017-04-28T07:12:45.942Z,6.87
2017-04-28T07:13:27.402Z,6.99
2017-04-28T07:14:08.987Z,7.03
2017-04-28T07:14:50.414Z,6.99
2017-04-28T07:15:34.590Z,7.13
2017-04-28T07:16:17.516Z,7.18
2017-04-28T07:16:58.892Z,7.23
2017-04-28T07:17:40.583Z,7.33
2017-04-28T07:18:22.168Z,7.39
2017-04-28T07:19:03.907Z,7.38
2017-04-28T07:19:45.927Z,7.45
2017-04-28T07:20:27.545Z,7.38
2017-04-28T07:21:08.995Z,7.39
2017-04-28T07:21:50.974Z,7.4
2017-04-28T07:22:33.197Z,7.45
2017-04-28T07:23:15.304Z,7.43
2017-04-28T07:23:56.835Z,7.51
2017-04-28T07:24:38.690Z,7.57
2017-04-28T07:25:20.925Z,7.61
2017-04-28T07:26:02.769Z,7.58
2017-04-28T07:26:44.140Z,7.61
2017-04-28T07:27:25.925Z,7.75
2017-04-28T07:28:07.692Z,7.83
2017-04-28T07:28:49.783Z,7.87
2017-04-28T07:29:31.376Z,7.93
2017-04-28T07:30:12.826Z,7.8
2017-04-28T07:30:54.706Z,7.93
2017-04-28T07:31:36.793Z,7.97
2017-04-28T07:32:18.265Z,8.03
2017-04-28T07:33:00.045Z,7.95
2017-04-28T07:33:41.746Z,8.05
2017-04-28T07:34:22.353Z,8.05
2017-04-28T07:35:02.994Z,8.1
2017-04-28T07:35:43.632Z,8.01
2017-04-28T07:36:24.254Z,8.09
2017-04-28T07:37:04.908Z,8.09
2017-04-28T07:37:45.642Z,8.09
2017-04-28T07:38:26.351Z,8.06
2017-04-28T07:39:07.269Z,8.1
2017-04-28T07:39:47.936Z,8.09
2017-04-28T07:40:28.505Z,8.1
2017-04-28T07:41:09.226Z,8.15
2017-04-28T07:41:49.920Z,8.18
2017-04-28T07:42:30.714Z,8.31
2017-04-28T07:43:11.283Z,8.31
2017-04-28T07:43:52.013Z,8.36
2017-04-28T07:44:32.639Z,8.44
2017-04-28T07:45:13.236Z,8.44
2017-04-28T07:45:53.820Z,8.48
2017-04-28T07:46:34.447Z,8.48
2017-04-28T07:47:15.045Z,8.66
2017-04-28T07:47:55.631Z,8.73
2017-04-28T07:48:36.189Z,8.71
2017-04-28T07:49:16.841Z,8.74
2017-04-28T07:49:57.486Z,8.82
2017-04-28T07:50:38.095Z,8.71
2017-04-28T07:51:18.750Z,8.79
2017-04-28T07:51:59.400Z,8.78
2017-04-28T07:52:40.058Z,8.87
2017-04-28T07:53:20.714Z,8.87
2017-04-28T07:54:01.318Z,8.85
2017-04-28T07:54:41.908Z,8.78
2017-04-28T07:55:22.568Z,8.88
2017-04-28T07:56:03.181Z,8.82
2017-04-28T07:56:43.824Z,8.91
2017-04-28T07:57:24.477Z,8.92
2017-04-28T07:58:05.161Z,8.84
2017-04-28T07:58:45.771Z,8.99
2017-04-28T07:59:26.440Z,9.02
2017-04-28T08:00:07.100Z,9.08
2017-04-28T08:00:47.743Z,9.06
2017-04-28T08:01:28.410Z,9.13
2017-04-28T08:02:09.047Z,9.21
2017-04-28T08:02:49.714Z,9.23
2017-04-28T08:03:30.352Z,9.44
2017-04-28T08:04:11.010Z,9.46
2017-04-28T08:04:51.683Z,9.54
2017-04-28T08:05:32.324Z,9.56
2017-04-28T08:06:12.959Z,9.66
2017-04-28T08:06:53.637Z,9.66
2017-04-28T08:07:34.265Z,9.76
2017-04-28T08:08:14.938Z,9.91
2017-04-28T08:08:55.588Z,9.87
2017-04-28T08:09:36.244Z,9.95
2017-04-28T08:10:16.888Z,9.99
2017-04-28T08:10:57.522Z,10.04
2017-04-28T08:11:38.083Z,10.02
2017-04-28T08:12:18.758Z,10.13
2017-04-28T08:12:59.389Z,10.07
2017-04-28T08:13:40.055Z,10.17
2017-04-28T08:14:20.695Z,10.16
2017-04-28T08:15:01.334Z,10.19
2017-04-28T08:15:42.011Z,10.28
2017-04-28T08:16:23.694Z,10.28
2017-04-28T08:17:04.331Z,10.31
2017-04-28T08:17:44.995Z,10.38
2017-04-28T08:18:25.647Z,10.38
2017-04-28T08:19:06.293Z,10.37
2017-04-28T08:19:46.932Z,10.51
2017-04-28T08:20:27.474Z,10.53
2017-04-28T08:21:08.042Z,10.64
2017-04-28T08:21:48.683Z,10.57
2017-04-28T08:22:29.261Z,10.6
2017-04-28T08:23:09.931Z,10.64
2017-04-28T08:23:51.568Z,10.71
2017-04-28T08:24:32.144Z,10.68
2017-04-28T08:25:12.772Z,10.78
2017-04-28T08:25:53.480Z,10.84
2017-04-28T08:26:34.077Z,10.82
2017-04-28T08:27:14.674Z,10.92
2017-04-28T08:27:55.307Z,11.02
2017-04-28T08:28:35.885Z,10.99
2017-04-28T08:29:16.483Z,11.05
2017-04-28T08:29:57.081Z,11.04
2017-04-28T08:30:37.697Z,11.19
2017-04-28T08:31:18.360Z,11.12
2017-04-28T08:31:59.015Z,11.23
2017-04-28T08:32:39.790Z,11.26
2017-04-28T08:33:20.523Z,11.19
2017-04-28T08:34:01.174Z,11.18
2017-04-28T08:34:41.994Z,11.11
2017-04-28T08:35:22.696Z,11.02
2017-04-28T08:36:03.390Z,10.92
2017-04-28T08:36:44.083Z,10.82
2017-04-28T08:37:24.776Z,10.89
2017-04-28T08:38:05.392Z,10.86
2017-04-28T08:38:46.452Z,10.82
2017-04-28T08:39:27.094Z,10.71
2017-04-28T08:40:07.758Z,10.67
2017-04-28T08:40:48.319Z,10.54
2017-04-28T08:41:28.979Z,10.56
2017-04-28T08:42:09.599Z,10.4
2017-04-28T08:42:50.163Z,10.42
2017-04-28T08:43:30.818Z,10.3
2017-04-28T08:44:11.455Z,10.2
2017-04-28T08:44:52.019Z,10.19
2017-04-28T08:45:33.715Z,10.1
2017-04-28T08:46:14.342Z,9.98
2017-04-28T08:46:54.902Z,9.92
2017-04-28T08:47:35.595Z,9.83
2017-04-28T08:48:16.210Z,9.77
2017-04-28T08:48:56.785Z,9.79
2017-04-28T08:49:37.409Z,9.73
2017-04-28T08:50:18.057Z,9.68
2017-04-28T08:50:58.670Z,9.62
2017-04-28T08:51:39.289Z,9.65
2017-04-28T08:52:19.904Z,9.56
2017-04-28T08:53:00.453Z,9.55
2017-04-28T08:53:41.130Z,9.5
2017-04-28T08:54:21.761Z,9.56
2017-04-28T08:55:02.308Z,9.48
2017-04-28T08:55:43.942Z,9.51
2017-04-28T08:56:24.592Z,9.46
2017-04-28T08:57:05.187Z,9.47
2017-04-28T08:57:45.755Z,9.47
2017-04-28T08:58:26.450Z,9.56
2017-04-28T08:59:07.106Z,9.5
2017-04-28T08:59:47.700Z,9.58
2017-04-28T09:00:28.379Z,9.56
2017-04-28T09:01:09.062Z,9.5
2017-04-28T09:01:49.712Z,9.54
2017-04-28T09:02:30.520Z,9.54
2017-04-28T09:03:11.066Z,9.69
2017-04-28T09:03:51.715Z,9.65
2017-04-28T09:04:32.327Z,9.64
2017-04-28T09:05:12.984Z,9.69
2017-04-28T09:05:53.630Z,9.74
2017-04-28T09:06:34.285Z,9.69
2017-04-28T09:07:14.937Z,9.73
2017-04-28T09:07:56.614Z,9.77
2017-04-28T09:08:37.268Z,9.8
2017-04-28T09:09:17.937Z,9.84
2017-04-28T09:09:58.574Z,9.84
2017-04-28T09:10:39.239Z,9.92
2017-04-28T09:11:19.877Z,10.07
2017-04-28T09:12:00.526Z,10.1
2017-04-28T09:12:41.187Z,10.28
2017-04-28T09:13:21.832Z,10.17
2017-04-28T09:14:02.506Z,10.41
2017-04-28T09:14:43.059Z,10.53
2017-04-28T09:15:23.636Z,10.54
2017-04-28T09:16:04.287Z,10.69
2017-04-28T09:16:44.863Z,10.84
2017-04-28T09:17:25.516Z,10.94
2017-04-28T09:18:06.147Z,11.05
2017-04-28T09:18:46.748Z,11.14
2017-04-28T09:19:27.352Z,11.29
2017-04-28T09:20:08.015Z,11.3
2017-04-28T09:20:48.660Z,11.41
2017-04-28T09:21:30.228Z,11.47
2017-04-28T09:22:10.912Z,11.45
2017-04-28T09:22:51.530Z,11.52
2017-04-28T09:23:32.189Z,11.62
2017-04-28T09:24:12.847Z,11.84
2017-04-28T09:24:53.439Z,11.94
2017-04-28T09:25:34.085Z,11.99
2017-04-28T09:26:14.708Z,11.87
2017-04-28T09:26:55.375Z,11.88
2017-04-28T09:27:36.052Z,12
2017-04-28T09:28:16.677Z,11.99
2017-04-28T09:28:57.332Z,12.12
2017-04-28T09:29:38.041Z,12.18
2017-04-28T09:30:18.664Z,12.27
2017-04-28T09:30:59.264Z,12.21
2017-04-28T09:31:39.896Z,12.22
2017-04-28T09:32:20.591Z,12.25
2017-04-28T09:33:01.382Z,12.27
2017-04-28T09:33:41.975Z,12.35
2017-04-28T09:34:22.533Z,12.31
2017-04-28T09:35:03.186Z,12.47
2017-04-28T09:35:43.854Z,12.4
2017-04-28T09:36:24.558Z,12.45
2017-04-28T09:37:05.157Z,12.45
2017-04-28T09:37:45.813Z,12.46
2017-04-28T09:38:26.471Z,12.49
2017-04-28T09:39:07.112Z,12.4
2017-04-28T09:39:47.766Z,12.29
2017-04-28T09:40:28.424Z,12.36
2017-04-28T09:41:09.081Z,12.36
2017-04-28T09:41:49.736Z,12.37
2017-04-28T09:42:30.396Z,12.32
2017-04-28T09:43:11.040Z,12.29
2017-04-28T09:43:51.837Z,12.31
2017-04-28T09:44:32.521Z,12.32
2017-04-28T09:45:13.178Z,12.28
2017-04-28T09:45:53.740Z,12.35
2017-04-28T09:46:34.383Z,12.42
2017-04-28T09:47:15.034Z,12.31
2017-04-28T09:47:55.596Z,12.32
2017-04-28T09:48:36.258Z,12.28
2017-04-28T09:49:16.889Z,12.22
2017-04-28T09:49:57.474Z,12.15
2017-04-28T09:50:38.092Z,12.13
2017-04-28T09:51:18.679Z,12.09
2017-04-28T09:51:59.306Z,12.12
2017-04-28T09:52:39.963Z,12.1
2017-04-28T09:53:20.624Z,12.02
2017-04-28T09:54:01.196Z,11.9
2017-04-28T09:54:41.814Z,11.86
2017-04-28T09:55:22.479Z,11.8
2017-04-28T09:56:03.130Z,11.69
2017-04-28T09:56:43.781Z,11.68
2017-04-28T09:57:24.476Z,11.6
2017-04-28T09:58:05.101Z,11.59
2017-04-28T09:58:45.735Z,11.44
2017-04-28T09:59:26.407Z,11.45
2017-04-28T10:00:06.983Z,11.54
2017-04-28T10:00:47.619Z,11.45
2017-04-28T10:01:28.215Z,11.35
2017-04-28T10:02:08.933Z,11.32
2017-04-28T10:02:49.594Z,11.25
2017-04-28T10:03:30.194Z,11.37
2017-04-28T10:04:10.768Z,11.32
2017-04-28T10:04:51.418Z,11.32
2017-04-28T10:05:32.106Z,11.3
2017-04-28T10:06:12.706Z,11.35
2017-04-28T10:06:53.273Z,11.26
2017-04-28T10:07:33.906Z,11.22
2017-04-28T10:08:14.512Z,11.4
2017-04-28T10:08:55.207Z,11.27
2017-04-28T10:09:35.770Z,11.33
2017-04-28T10:10:16.438Z,11.3
2017-04-28T10:10:57.021Z,11.26
2017-04-28T10:11:37.715Z,11.29
2017-04-28T10:12:18.270Z,11.22
2017-04-28T10:12:58.939Z,11.27
2017-04-28T10:13:39.524Z,11.29
2017-04-28T10:14:20.124Z,11.26
2017-04-28T10:15:00.684Z,11.25
2017-04-28T10:15:41.342Z,11.26
2017-04-28T10:16:21.950Z,11.27
2017-04-28T10:17:02.633Z,11.17
2017-04-28T10:17:43.216Z,11.27
2017-04-28T10:18:23.870Z,11.26
2017-04-28T10:19:05.468Z,11.23
2017-04-28T10:19:46.081Z,11.17
2017-04-28T10:20:26.672Z,11.23
2017-04-28T10:21:07.239Z,11.22
2017-04-28T10:21:47.888Z,11.23
2017-04-28T10:22:28.578Z,11.23
2017-04-28T10:23:09.226Z,11.29
2017-04-28T10:23:49.880Z,11.35
2017-04-28T10:24:30.499Z,11.3
2017-04-28T10:25:11.076Z,11.33
2017-04-28T10:25:51.683Z,11.4
2017-04-28T10:26:32.289Z,11.19
2017-04-28T10:27:12.985Z,11.29
2017-04-28T10:27:53.625Z,11.26
2017-04-28T10:28:34.314Z,11.33
2017-04-28T10:29:14.958Z,11.26
2017-04-28T10:29:55.659Z,11.26
2017-04-28T10:30:36.321Z,11.23
2017-04-28T10:31:16.990Z,11.19
2017-04-28T10:31:57.624Z,11.26
2017-04-28T10:32:38.302Z,11.19
2017-04-28T10:33:18.925Z,11.19
2017-04-28T10:33:59.574Z,11.18
2017-04-28T10:34:40.271Z,11.18
2017-04-28T10:35:20.859Z,11.15
2017-04-28T10:36:01.708Z,11.17
2017-04-28T10:36:42.674Z,11.08
2017-04-28T10:37:23.428Z,11.1
2017-04-28T10:38:04.083Z,11.11
2017-04-28T10:38:44.881Z,11.12
2017-04-28T10:39:25.680Z,11.11
2017-04-28T10:40:06.671Z,11.12
2017-04-28T10:40:47.425Z,11.14
2017-04-28T10:41:28.117Z,10.99
2017-04-28T10:42:08.673Z,10.94
2017-04-28T10:42:49.324Z,10.89
2017-04-28T10:43:30.051Z,10.87
2017-04-28T10:44:10.730Z,10.94
2017-04-28T10:44:51.339Z,10.93
2017-04-28T10:45:32.078Z,10.93
2017-04-28T10:46:12.843Z,10.92
2017-04-28T10:46:53.512Z,11
2017-04-28T10:47:34.280Z,10.89
2017-04-28T10:48:15.145Z,10.96
2017-04-28T10:48:55.800Z,10.93
2017-04-28T10:49:36.531Z,10.84
2017-04-28T10:50:17.285Z,10.89
2017-04-28T10:50:58.039Z,10.86
2017-04-28T10:51:38.590Z,10.9
2017-04-28T10:52:19.361Z,10.92
2017-04-28T10:53:00.155Z,10.84
2017-04-28T10:53:40.958Z,10.92
2017-04-28T10:54:21.527Z,10.87
2017-04-28T10:55:02.294Z,10.89
2017-04-28T10:55:42.971Z,10.78
2017-04-28T10:56:23.880Z,10.93
2017-04-28T10:57:04.452Z,11
2017-04-28T10:57:45.245Z,11.07
2017-04-28T10:58:25.963Z,11.14
2017-04-28T10:59:06.699Z,11.26
2017-04-28T10:59:47.262Z,11.4
2017-04-28T11:00:27.985Z,11.41
2017-04-28T11:01:08.773Z,11.47
2017-04-28T11:01:49.502Z,11.44
2017-04-28T11:02:30.244Z,11.43
2017-04-28T11:03:10.825Z,11.44
2017-04-28T11:03:51.540Z,11.37
2017-04-28T11:04:32.305Z,11.41
2017-04-28T11:05:12.976Z,11.37
2017-04-28T11:05:53.656Z,11.52
2017-04-28T11:06:34.353Z,11.5
2017-04-28T11:07:14.914Z,11.54
2017-04-28T11:07:55.585Z,11.66
2017-04-28T11:08:36.292Z,11.63
2017-04-28T11:09:16.968Z,11.63
2017-04-28T11:09:57.533Z,11.88
2017-04-28T11:10:38.212Z,11.91
2017-04-28T11:11:19.335Z,12.12
2017-04-28T11:12:00.129Z,12.21
2017-04-28T11:12:40.867Z,12.27
2017-04-28T11:13:21.612Z,12.29
2017-04-28T11:14:02.259Z,12.35
2017-04-28T11:14:43.264Z,12.45
2017-04-28T11:15:23.973Z,12.37
2017-04-28T11:16:04.552Z,12.53
2017-04-28T11:16:45.390Z,12.64
2017-04-28T11:17:26.236Z,12.8
2017-04-28T11:18:06.836Z,12.79
2017-04-28T11:18:47.557Z,12.94
2017-04-28T11:19:28.299Z,13.05
2017-04-28T11:20:09.114Z,13.27
2017-04-28T11:20:49.840Z,13.18
2017-04-28T11:21:30.580Z,13.28
2017-04-28T11:22:11.233Z,13.37
2017-04-28T11:22:52.003Z,13.41
2017-04-28T11:23:32.761Z,13.49
2017-04-28T11:24:13.652Z,13.49
2017-04-28T11:24:54.472Z,13.49
2017-04-28T11:25:35.214Z,13.56
2017-04-28T11:26:15.972Z,13.63
2017-04-28T11:26:56.859Z,13.63
2017-04-28T11:27:37.604Z,13.71
2017-04-28T11:28:18.439Z,13.7
2017-04-28T11:28:59.218Z,13.67
2017-04-28T11:29:40.022Z,13.77
2017-04-28T11:30:20.850Z,13.81
2017-04-28T11:31:01.657Z,13.87
2017-04-28T11:31:42.304Z,13.86
2017-04-28T11:32:23.046Z,13.95
2017-04-28T11:33:05.869Z,13.93
2017-04-28T11:33:47.623Z,13.92
2017-04-28T11:34:28.333Z,13.87
2017-04-28T11:35:08.942Z,13.97
2017-04-28T11:35:49.906Z,13.97
2017-04-28T11:36:30.686Z,13.93
2017-04-28T11:37:11.713Z,14.04
2017-04-28T11:37:52.434Z,14.03
2017-04-28T11:38:33.177Z,14
2017-04-28T11:39:14.021Z,14.04
2017-04-28T11:39:54.666Z,13.99
2017-04-28T11:40:35.471Z,14.03
2017-04-28T11:41:16.160Z,14
2017-04-28T11:41:56.961Z,13.92
2017-04-28T11:42:37.659Z,13.74
2017-04-28T11:43:18.336Z,13.63
2017-04-28T11:43:59.102Z,13.56
2017-04-28T11:44:39.849Z,13.62
2017-04-28T11:45:20.438Z,13.53
2017-04-28T11:46:01.085Z,13.59
2017-04-28T11:46:42.213Z,13.56
2017-04-28T11:47:22.769Z,13.57
2017-04-28T11:48:03.496Z,13.59
2017-04-28T11:48:44.113Z,13.53
2017-04-28T11:49:24.691Z,13.59
2017-04-28T11:50:05.276Z,13.63
2017-04-28T11:50:45.927Z,13.67
2017-04-28T11:51:26.717Z,13.67
2017-04-28T11:52:07.308Z,13.67
2017-04-28T11:52:47.867Z,13.81
2017-04-28T11:53:28.537Z,13.75
2017-04-28T11:54:09.111Z,13.78
2017-04-28T11:54:49.738Z,13.85
2017-04-28T11:55:30.343Z,13.81
2017-04-28T11:56:11.028Z,13.79
2017-04-28T11:56:51.710Z,13.83
2017-04-28T11:57:32.415Z,13.75
2017-04-28T11:58:13.008Z,13.79
2017-04-28T11:58:53.699Z,13.71
2017-04-28T11:59:34.323Z,13.72
2017-04-28T12:00:15.029Z,13.7
2017-04-28T12:00:55.602Z,13.63
2017-04-28T12:01:36.260Z,13.68
2017-04-28T12:02:16.904Z,13.65
2017-04-28T12:02:57.556Z,13.63
2017-04-28T12:03:38.202Z,13.62
2017-04-28T12:04:18.869Z,13.59
2017-04-28T12:04:59.500Z,13.54
2017-04-28T12:05:40.098Z,13.56
2017-04-28T12:06:20.697Z,13.46
2017-04-28T12:07:01.273Z,13.5
2017-04-28T12:07:41.919Z,13.5
2017-04-28T12:08:22.508Z,13.56
2017-04-28T12:09:03.097Z,13.57
2017-04-28T12:09:43.681Z,13.57
2017-04-28T12:10:24.327Z,13.5
2017-04-28T12:11:04.920Z,13.3
2017-04-28T12:11:45.513Z,13.27
2017-04-28T12:12:26.100Z,13.27
2017-04-28T12:13:06.743Z,13.22
2017-04-28T12:13:47.418Z,13.23
2017-04-28T12:14:28.023Z,13.27
2017-04-28T12:15:08.583Z,13.27
2017-04-28T12:15:49.254Z,13.47
2017-04-28T12:16:29.828Z,13.49
2017-04-28T12:17:10.432Z,13.52
2017-04-28T12:17:51.018Z,13.6
2017-04-28T12:18:31.666Z,13.6
2017-04-28T12:19:12.339Z,13.63
2017-04-28T12:19:52.934Z,13.67
2017-04-28T12:20:33.592Z,13.59
2017-04-28T12:21:14.243Z,13.59
2017-04-28T12:21:54.895Z,13.54
2017-04-28T12:22:35.664Z,13.57
2017-04-28T12:23:16.466Z,13.63
2017-04-28T12:23:58.008Z,13.54
2017-04-28T12:24:38.631Z,13.59
2017-04-28T12:25:19.212Z,13.68
2017-04-28T12:25:59.860Z,13.72
2017-04-28T12:26:40.490Z,13.59
2017-04-28T12:27:21.077Z,13.62
2017-04-28T12:28:01.719Z,13.68
2017-04-28T12:28:42.710Z,13.65
2017-04-28T12:29:23.309Z,13.7
2017-04-28T12:30:03.970Z,13.78
2017-04-28T12:30:44.618Z,13.78
2017-04-28T12:31:25.267Z,13.75
2017-04-28T12:32:05.928Z,13.68
2017-04-28T12:32:46.599Z,13.68
2017-04-28T12:33:27.233Z,13.71
2017-04-28T12:34:07.890Z,13.7
2017-04-28T12:34:48.557Z,13.62
2017-04-28T12:35:29.129Z,13.67
2017-04-28T12:36:09.760Z,13.79
2017-04-28T12:36:50.410Z,13.83
2017-04-28T12:37:31.046Z,13.81
2017-04-28T12:38:11.725Z,13.81
2017-04-28T12:38:52.356Z,13.83
2017-04-28T12:39:32.922Z,13.9
2017-04-28T12:40:13.577Z,13.99
2017-04-28T12:40:54.280Z,14
2017-04-28T12:41:34.883Z,14.08
2017-04-28T12:42:15.539Z,14.28
2017-04-28T12:42:56.220Z,14.44
2017-04-28T12:43:36.820Z,14.6
2017-04-28T12:44:17.487Z,14.68
2017-04-28T12:44:58.145Z,14.84
2017-04-28T12:45:38.738Z,14.86
2017-04-28T12:46:20.357Z,14.91
2017-04-28T12:47:00.919Z,14.97
2017-04-28T12:47:41.631Z,15.1
2017-04-28T12:48:22.271Z,15.22
2017-04-28T12:49:02.862Z,15.22
2017-04-28T12:49:43.446Z,15.27
2017-04-28T12:50:24.075Z,15.31
2017-04-28T12:51:04.716Z,15.29
2017-04-28T12:51:45.366Z,15.46
2017-04-28T12:52:25.950Z,15.36
2017-04-28T12:53:06.566Z,15.29
2017-04-28T12:53:47.157Z,15.22
2017-04-28T12:54:27.803Z,15.07
2017-04-28T12:55:08.434Z,14.96
2017-04-28T12:55:49.078Z,14.97
2017-04-28T12:56:29.743Z,14.92
2017-04-28T12:57:10.389Z,14.92
2017-04-28T12:57:51.040Z,14.91
2017-04-28T12:58:31.697Z,14.73
2017-04-28T12:59:12.348Z,14.73
2017-04-28T12:59:53.071Z,14.73
2017-04-28T13:00:33.643Z,14.54
2017-04-28T13:01:14.229Z,14.47
2017-04-28T13:01:54.961Z,14.45
2017-04-28T13:02:35.538Z,14.47
2017-04-28T13:03:16.130Z,14.44
2017-04-28T13:03:56.816Z,14.32
2017-04-28T13:04:37.371Z,14.29
2017-04-28T13:05:18.024Z,14.22
2017-04-28T13:05:58.683Z,14.23
2017-04-28T13:06:39.371Z,14.17
2017-04-28T13:07:20.005Z,14.22
2017-04-28T13:08:00.642Z,14.25
2017-04-28T13:08:41.294Z,14.3
2017-04-28T13:09:21.948Z,14.44
2017-04-28T13:10:02.622Z,14.58
2017-04-28T13:10:43.261Z,14.58
2017-04-28T13:11:23.913Z,14.54
2017-04-28T13:12:04.511Z,14.65
2017-04-28T13:12:45.126Z,14.6
2017-04-28T13:13:25.763Z,14.54
2017-04-28T13:14:06.422Z,14.63
2017-04-28T13:14:47.070Z,14.47
2017-04-28T13:15:27.675Z,14.4
2017-04-28T13:16:08.260Z,14.2
2017-04-28T13:16:48.887Z,14.12
2017-04-28T13:17:29.491Z,14
2017-04-28T13:18:10.180Z,14.03
2017-04-28T13:18:50.768Z,13.97
2017-04-28T13:19:31.353Z,13.9
2017-04-28T13:20:11.978Z,13.99
2017-04-28T13:20:52.647Z,14.03
2017-04-28T13:21:33.241Z,14.18
2017-04-28T13:22:13.825Z,14.14
2017-04-28T13:22:54.479Z,14.17
2017-04-28T13:23:35.154Z,14.14
2017-04-28T13:24:15.747Z,14.22
2017-04-28T13:24:56.438Z,14.29
2017-04-28T13:25:37.067Z,14.33
2017-04-28T13:26:17.731Z,14.4
2017-04-28T13:26:58.378Z,14.35
2017-04-28T13:27:39.099Z,14.44
2017-04-28T13:28:20.459Z,14.41
2017-04-28T13:29:02.111Z,14.44
2017-04-28T13:29:42.739Z,14.47
2017-04-28T13:30:23.382Z,14.41
2017-04-28T13:31:04.021Z,14.36
2017-04-28T13:31:44.738Z,14.43
2017-04-28T13:32:25.364Z,14.36
2017-04-28T13:33:05.983Z,14.35
2017-04-28T13:33:46.568Z,14.22
2017-04-28T13:34:27.207Z,14.2
2017-04-28T13:35:07.836Z,14.17
2017-04-28T13:35:48.462Z,14.11
2017-04-28T13:36:29.063Z,14.11
2017-04-28T13:37:09.657Z,13.97
2017-04-28T13:37:50.341Z,13.99
2017-04-28T13:38:30.959Z,13.86
2017-04-28T13:39:11.575Z,13.77
2017-04-28T13:39:52.158Z,13.74
2017-04-28T13:40:32.755Z,13.71
2017-04-28T13:41:13.404Z,13.67
2017-04-28T13:41:54.058Z,13.75
2017-04-28T13:42:34.710Z,13.72
2017-04-28T13:43:15.388Z,13.59
2017-04-28T13:43:56.126Z,13.65
2017-04-28T13:44:36.770Z,13.65
2017-04-28T13:45:17.349Z,13.62
2017-04-28T13:45:57.990Z,13.67
2017-04-28T13:46:38.660Z,13.67
2017-04-28T13:47:19.306Z,13.81
2017-04-28T13:47:59.963Z,13.78
2017-04-28T13:48:40.581Z,13.79
2017-04-28T13:49:21.228Z,13.86
2017-04-28T13:50:01.859Z,13.89
2017-04-28T13:50:42.502Z,13.83
2017-04-28T13:51:23.117Z,13.85
2017-04-28T13:52:03.788Z,13.89
2017-04-28T13:52:44.433Z,13.9
2017-04-28T13:53:25.136Z,13.97
2017-04-28T13:54:05.730Z,14
2017-04-28T13:54:46.384Z,13.93
2017-04-28T13:55:27.544Z,13.96
2017-04-28T13:56:08.142Z,14.05
2017-04-28T13:56:48.755Z,14.05
2017-04-28T13:57:29.412Z,14.05
2017-04-28T13:58:10.131Z,14.11
2017-04-28T13:58:50.829Z,14.15
2017-04-28T13:59:31.466Z,14.17
2017-04-28T14:00:12.117Z,14.22
2017-04-28T14:00:52.748Z,14.18
2017-04-28T14:01:33.322Z,14.28
2017-04-28T14:02:14.025Z,14.4
2017-04-28T14:02:54.603Z,14.45
2017-04-28T14:03:35.164Z,14.53
2017-04-28T14:04:15.836Z,14.58
2017-04-28T14:04:56.468Z,14.59
2017-04-28T14:05:37.025Z,14.58
2017-04-28T14:06:17.707Z,14.62
2017-04-28T14:06:58.379Z,14.68
2017-04-28T14:07:39.073Z,14.63
2017-04-28T14:08:19.638Z,14.7
2017-04-28T14:09:00.304Z,14.7
2017-04-28T14:09:40.893Z,14.79
2017-04-28T14:10:21.471Z,14.79
2017-04-28T14:11:03.087Z,14.73
2017-04-28T14:11:43.716Z,14.7
2017-04-28T14:12:24.285Z,14.62
2017-04-28T14:13:04.860Z,14.51
2017-04-28T14:13:45.570Z,14.66
2017-04-28T14:14:26.145Z,14.44
2017-04-28T14:15:06.782Z,14.41
2017-04-28T14:15:47.492Z,14.4
2017-04-28T14:16:28.180Z,14.26
2017-04-28T14:17:08.826Z,14.22
2017-04-28T14:17:49.489Z,14.25
2017-04-28T14:18:30.170Z,14.25
2017-04-28T14:19:10.861Z,14.28
2017-04-28T14:19:51.453Z,14.17
2017-04-28T14:20:32.041Z,14.22
2017-04-28T14:21:12.716Z,14.2
2017-04-28T14:21:53.378Z,14.18
2017-04-28T14:22:33.951Z,14
2017-04-28T14:23:14.527Z,13.95
2017-04-28T14:23:55.183Z,13.85
2017-04-28T14:24:35.766Z,13.78
2017-04-28T14:25:16.365Z,13.83
2017-04-28T14:25:58.041Z,13.86
2017-04-28T14:26:38.694Z,13.81
2017-04-28T14:27:19.343Z,13.85
2017-04-28T14:28:00.022Z,13.86
2017-04-28T14:28:40.649Z,13.86
2017-04-28T14:29:21.303Z,13.87
2017-04-28T14:30:02.042Z,13.81
2017-04-28T14:30:42.517Z,13.75
2017-04-28T14:31:23.182Z,13.68
2017-04-28T14:32:04.083Z,13.7
2017-04-28T14:32:44.669Z,13.6
2017-04-28T14:33:25.334Z,13.56
2017-04-28T14:34:05.978Z,13.59
2017-04-28T14:34:46.555Z,13.54
2017-04-28T14:35:27.209Z,13.57
2017-04-28T14:36:07.855Z,13.56
2017-04-28T14:36:48.429Z,13.49
2017-04-28T14:37:29.044Z,13.47
2017-04-28T14:38:09.684Z,13.38
2017-04-28T14:38:50.321Z,13.41
2017-04-28T14:39:31.025Z,13.46
2017-04-28T14:40:11.682Z,13.42
2017-04-28T14:40:52.363Z,13.38
2017-04-28T14:41:32.941Z,13.44
2017-04-28T14:42:13.505Z,13.39
2017-04-28T14:42:54.058Z,13.42
2017-04-28T14:43:34.650Z,13.47
2017-04-28T14:44:15.357Z,13.52
2017-04-28T14:44:55.973Z,13.56
2017-04-28T14:45:36.571Z,13.67
2017-04-28T14:46:17.269Z,13.89
2017-04-28T14:46:57.965Z,13.95
2017-04-28T14:47:38.575Z,14
2017-04-28T14:48:19.179Z,14.1
2017-04-28T14:48:59.799Z,14.11
2017-04-28T14:49:40.474Z,14.17
2017-04-28T14:50:21.696Z,14.18
2017-04-28T14:51:02.317Z,14.3
2017-04-28T14:51:43.056Z,14.44
2017-04-28T14:52:23.626Z,14.54
2017-04-28T14:53:05.299Z,14.55
2017-04-28T14:53:45.933Z,14.59
2017-04-28T14:54:26.524Z,14.62
2017-04-28T14:55:07.147Z,14.59
2017-04-28T14:55:47.721Z,14.58
2017-04-28T14:56:28.301Z,14.7
2017-04-28T14:57:08.932Z,14.7
2017-04-28T14:57:49.591Z,14.77
2017-04-28T14:58:35.241Z,14.7
2017-04-28T14:59:16.810Z,14.78
2017-04-28T14:59:57.377Z,14.84
2017-04-28T15:00:38.097Z,14.73
2017-04-28T15:01:18.677Z,14.82
2017-04-28T15:01:59.261Z,14.77
2017-04-28T15:02:39.985Z,14.79
2017-04-28T15:03:20.559Z,14.77
2017-04-28T15:04:03.112Z,14.7
2017-04-28T15:04:43.810Z,14.65
2017-04-28T15:05:26.035Z,14.68
2017-04-28T15:06:09.480Z,14.65
2017-04-28T15:06:50.100Z,14.62
2017-04-28T15:07:30.779Z,14.59
2017-04-28T15:08:11.403Z,14.62
2017-04-28T15:08:52.393Z,14.44
2017-04-28T15:09:37.875Z,14.48
2017-04-28T15:10:18.448Z,14.41
2017-04-28T15:11:00.720Z,14.47
2017-04-28T15:11:41.584Z,14.41
2017-04-28T15:12:22.210Z,14.37
2017-04-28T15:13:02.872Z,14.35
2017-04-28T15:13:43.511Z,14.47
2017-04-28T15:14:24.308Z,14.44
2017-04-28T15:15:04.882Z,14.36
2017-04-28T15:15:45.579Z,14.41
2017-04-28T15:16:26.242Z,14.41
2017-04-28T15:17:07.006Z,14.3
2017-04-28T15:17:47.741Z,14.28
2017-04-28T15:18:28.397Z,14.25
2017-04-28T15:19:09.045Z,14.2
2017-04-28T15:19:49.814Z,14.15
2017-04-28T15:20:30.460Z,14.08
2017-04-28T15:21:11.104Z,14.04